createdAt,value
2023-06-11T00:01:30.925Z,7.43
2023-06-11T00:03:58.977Z,12.35
2023-06-11T00:06:26.395Z,7.23
2023-06-11T00:08:55.491Z,7.00
2023-06-11T00:11:23.561Z,6.63
2023-06-11T00:13:51.561Z,5.10
2023-06-11T00:16:18.905Z,9.23
2023-06-11T00:18:46.584Z,6.35
2023-06-11T00:21:14.926Z,7.22
2023-06-11T00:23:42.358Z,12.35
2023-06-11T00:26:09.993Z,4.75
2023-06-11T00:28:37.431Z,4.50
2023-06-11T00:31:05.287Z,4.88
2023-06-11T00:33:32.650Z,7.97
2023-06-11T00:36:00.015Z,6.13
2023-06-11T00:38:27.252Z,5.28
2023-06-11T00:40:54.494Z,5.40
2023-06-11T00:43:24.335Z,7.28
2023-06-11T00:45:52.417Z,5.18
2023-06-11T00:48:20.875Z,4.75
2023-06-11T00:50:50.314Z,3.75
2023-06-11T00:53:18.997Z,4.07
2023-06-11T00:55:46.937Z,4.03
2023-06-11T00:58:15.601Z,6.70
2023-06-11T01:00:51.537Z,5.90
2023-06-11T01:03:28.447Z,3.88
2023-06-11T01:06:08.343Z,6.13
2023-06-11T01:08:40.437Z,4.53
2023-06-11T01:11:22.425Z,5.22
2023-06-11T01:13:50.260Z,5.18
2023-06-11T01:16:47.608Z,4.13
2023-06-11T01:19:38.363Z,4.60
2023-06-11T01:22:14.915Z,3.13
2023-06-11T01:25:04.393Z,3.53
2023-06-11T01:27:53.176Z,4.30
2023-06-11T01:30:21.859Z,5.10
2023-06-11T01:32:57.109Z,5.15
2023-06-11T01:35:24.986Z,3.70
2023-06-11T01:37:59.481Z,3.33
2023-06-11T01:40:27.599Z,3.47
2023-06-11T01:42:55.896Z,5.57
2023-06-11T01:45:24.314Z,3.53
2023-06-11T01:47:52.300Z,3.63
2023-06-11T01:50:20.559Z,4.13
2023-06-11T01:52:48.302Z,2.95
2023-06-11T01:55:15.946Z,9.63
2023-06-11T01:57:43.295Z,4.85
2023-06-11T02:00:11.424Z,4.15
2023-06-11T02:02:40.721Z,5.85
2023-06-11T02:05:09.158Z,3.40
2023-06-11T02:07:37.481Z,2.83
2023-06-11T02:10:05.272Z,2.90
2023-06-11T02:12:32.596Z,3.28
2023-06-11T02:14:59.987Z,2.63
2023-06-11T02:17:27.337Z,2.65
2023-06-11T02:19:54.577Z,2.83
2023-06-11T02:22:21.902Z,2.85
2023-06-11T02:24:49.129Z,5.50
2023-06-11T02:27:16.583Z,3.42
2023-06-11T02:29:43.791Z,4.53
2023-06-11T02:32:12.667Z,5.57
2023-06-11T02:34:40.156Z,2.65
2023-06-11T02:37:07.691Z,2.63
2023-06-11T02:39:35.009Z,3.10
2023-06-11T02:42:02.429Z,4.65
2023-06-11T02:44:29.666Z,4.38
2023-06-11T02:46:56.974Z,3.72
2023-06-11T02:49:24.205Z,6.35
2023-06-11T02:51:51.505Z,2.75
2023-06-11T02:54:18.783Z,2.85
2023-06-11T02:56:46.106Z,3.45
2023-06-11T02:59:13.367Z,3.72
2023-06-11T03:01:40.822Z,2.92
2023-06-11T03:04:08.308Z,3.55
2023-06-11T03:06:35.903Z,2.53
2023-06-11T03:09:03.257Z,2.70
2023-06-11T03:11:30.547Z,5.30
2023-06-11T03:13:57.833Z,2.20
2023-06-11T03:16:25.247Z,3.83
2023-06-11T03:18:52.530Z,2.58
2023-06-11T03:21:19.803Z,2.80
2023-06-11T03:23:47.041Z,2.10
2023-06-11T03:26:14.301Z,3.35
2023-06-11T03:28:41.512Z,2.55
2023-06-11T03:31:08.812Z,4.25
2023-06-11T03:33:36.111Z,2.97
2023-06-11T03:36:03.329Z,4.30
2023-06-11T03:38:30.585Z,3.05
2023-06-11T03:40:57.818Z,2.42
2023-06-11T03:43:25.145Z,3.28
2023-06-11T03:45:52.482Z,2.67
2023-06-11T03:48:19.747Z,4.35
2023-06-11T03:50:47.098Z,2.28
2023-06-11T03:53:14.365Z,2.63
2023-06-11T03:55:41.613Z,2.13
2023-06-11T03:58:08.861Z,2.17
2023-06-11T04:00:36.375Z,2.30
2023-06-11T04:03:03.771Z,2.97
2023-06-11T04:05:38.836Z,3.10
2023-06-11T04:08:06.109Z,2.45
2023-06-11T04:10:33.645Z,2.67
2023-06-11T04:13:01.053Z,2.00
2023-06-11T04:15:28.336Z,2.08
2023-06-11T04:17:55.631Z,1.95
2023-06-11T04:20:22.998Z,2.20
2023-06-11T04:22:50.338Z,2.90
2023-06-11T04:25:20.236Z,2.08
2023-06-11T04:27:48.329Z,2.08
2023-06-11T04:30:15.867Z,2.67
2023-06-11T04:32:43.257Z,3.70
2023-06-11T04:35:14.750Z,3.40
2023-06-11T04:37:43.332Z,2.33
2023-06-11T04:40:11.751Z,2.35
2023-06-11T04:42:42.541Z,2.20
2023-06-11T04:45:11.601Z,1.90
2023-06-11T04:47:39.461Z,5.57
2023-06-11T04:50:07.651Z,2.42
2023-06-11T04:52:44.130Z,2.13
2023-06-11T04:55:13.448Z,2.60
2023-06-11T04:57:41.115Z,2.55
2023-06-11T05:00:09.664Z,2.47
2023-06-11T05:02:45.661Z,3.08
2023-06-11T05:05:14.023Z,3.13
2023-06-11T05:10:10.468Z,2.53
2023-06-11T05:12:37.735Z,2.33
2023-06-11T05:15:05.458Z,2.42
2023-06-11T05:17:34.014Z,1.95
2023-06-11T05:20:01.367Z,3.67
2023-06-11T05:22:28.634Z,2.83
2023-06-11T05:24:55.931Z,1.95
2023-06-11T05:27:24.854Z,2.25
2023-06-11T05:29:52.678Z,1.88
2023-06-11T05:32:20.102Z,1.60
2023-06-11T05:34:50.918Z,3.92
2023-06-11T05:37:18.510Z,1.83
2023-06-11T05:39:47.066Z,2.83
2023-06-11T05:42:14.381Z,2.05
2023-06-11T05:44:42.109Z,2.33
2023-06-11T05:47:09.400Z,1.90
2023-06-11T05:49:37.063Z,1.70
2023-06-11T05:52:04.452Z,1.80
2023-06-11T05:54:31.690Z,1.98
2023-06-11T05:56:59.328Z,1.98
2023-06-11T05:59:26.589Z,2.30
2023-06-11T06:02:00.264Z,1.55
2023-06-11T06:04:27.727Z,1.80
2023-06-11T06:06:57.814Z,1.67
2023-06-11T06:09:25.044Z,2.95
2023-06-11T06:11:52.307Z,1.95
2023-06-11T06:14:19.567Z,1.95
2023-06-11T06:16:47.196Z,2.00
2023-06-11T06:19:14.581Z,3.50
2023-06-11T06:21:42.055Z,2.50
2023-06-11T06:24:10.982Z,2.20
2023-06-11T06:26:42.175Z,1.98
2023-06-11T06:29:09.864Z,2.00
2023-06-11T06:31:38.244Z,1.73
2023-06-11T06:34:05.540Z,1.98
2023-06-11T06:36:32.930Z,1.70
2023-06-11T06:39:01.304Z,3.42
2023-06-11T06:41:28.632Z,2.33
2023-06-11T06:43:57.668Z,4.07
2023-06-11T06:46:26.547Z,3.35
2023-06-11T06:48:53.925Z,2.00
2023-06-11T06:51:21.715Z,1.95
2023-06-11T06:53:49.217Z,3.40
2023-06-11T06:56:19.734Z,3.72
2023-06-11T06:58:46.976Z,1.83
2023-06-11T07:01:14.320Z,4.30
2023-06-11T07:03:42.337Z,2.85
2023-06-11T07:06:09.784Z,3.42
2023-06-11T07:08:38.839Z,1.63
2023-06-11T07:11:06.132Z,2.28
2023-06-11T07:13:33.412Z,2.83
2023-06-11T07:16:01.193Z,4.00
2023-06-11T07:18:29.322Z,8.50
2023-06-11T07:20:56.597Z,7.93
2023-06-11T07:23:23.861Z,1.70
2023-06-11T07:25:51.569Z,2.72
2023-06-11T07:28:18.931Z,2.90
2023-06-11T07:30:46.315Z,2.63
2023-06-11T07:33:13.687Z,4.53
2023-06-11T07:35:41.449Z,2.00
2023-06-11T07:38:08.767Z,3.08
2023-06-11T07:40:36.694Z,2.38
2023-06-11T07:43:03.941Z,1.90
2023-06-11T07:45:31.395Z,3.65
2023-06-11T07:47:58.663Z,5.68
2023-06-11T07:50:26.266Z,1.98
2023-06-11T07:52:53.486Z,4.35
2023-06-11T07:55:20.892Z,3.47
2023-06-11T07:57:48.290Z,4.95
2023-06-11T08:00:18.059Z,2.28
2023-06-11T08:02:45.830Z,2.70
2023-06-11T08:05:18.675Z,2.13
2023-06-11T08:07:47.178Z,1.58
2023-06-11T08:10:14.652Z,4.18
2023-06-11T08:12:42.152Z,2.40
2023-06-11T08:15:09.880Z,2.85
2023-06-11T08:17:37.292Z,1.90
2023-06-11T08:20:07.857Z,3.78
2023-06-11T08:22:35.207Z,1.92
2023-06-11T08:25:02.481Z,3.20
2023-06-11T08:27:29.712Z,14.38
2023-06-11T08:29:56.994Z,7.75
2023-06-11T08:32:25.875Z,12.00
2023-06-11T08:34:53.295Z,7.43
2023-06-11T08:37:20.562Z,9.88
2023-06-11T08:39:47.779Z,12.50
2023-06-11T08:42:15.131Z,12.45
2023-06-11T08:44:42.683Z,10.85
2023-06-11T08:47:11.940Z,8.80
2023-06-11T08:49:45.220Z,11.23
2023-06-11T08:52:14.330Z,15.93
2023-06-11T08:54:41.717Z,13.07
2023-06-11T08:57:09.783Z,9.48
2023-06-11T08:59:37.020Z,12.75
2023-06-11T09:02:04.698Z,11.10
2023-06-11T09:04:32.138Z,9.15
2023-06-11T09:07:01.888Z,5.68
2023-06-11T09:09:29.354Z,11.10
2023-06-11T09:11:56.993Z,6.72
2023-06-11T09:14:24.268Z,11.82
2023-06-11T09:16:51.799Z,21.13
2023-06-11T09:19:20.942Z,8.18
2023-06-11T09:21:52.787Z,14.52
2023-06-11T09:24:21.078Z,15.15
2023-06-11T09:26:59.270Z,10.25
2023-06-11T09:29:28.829Z,14.65
2023-06-11T09:32:19.544Z,9.23
2023-06-11T09:34:57.311Z,16.48
2023-06-11T09:37:24.785Z,7.95
2023-06-11T09:39:52.274Z,10.43
2023-06-11T09:42:27.985Z,10.77
2023-06-11T09:45:01.978Z,10.75
2023-06-11T09:47:31.907Z,14.07
2023-06-11T09:50:00.079Z,6.18
2023-06-11T09:52:30.792Z,6.70
2023-06-11T09:54:58.467Z,12.68
2023-06-11T09:57:26.001Z,9.82
2023-06-11T09:59:53.705Z,8.63
2023-06-11T10:02:22.278Z,8.43
2023-06-11T10:07:17.603Z,5.45
2023-06-11T10:09:47.155Z,9.85
2023-06-11T10:12:17.394Z,6.75
2023-06-11T10:14:52.436Z,12.48
2023-06-11T10:17:21.781Z,7.78
2023-06-11T10:19:50.043Z,7.60
2023-06-11T10:22:34.804Z,17.48
2023-06-11T10:25:05.724Z,8.70
2023-06-11T10:27:41.757Z,12.40
2023-06-11T10:30:10.385Z,9.27
2023-06-11T10:32:47.872Z,10.57
2023-06-11T10:35:23.709Z,7.55
2023-06-11T10:37:51.113Z,11.35
2023-06-11T10:40:20.840Z,14.38
2023-06-11T10:42:53.364Z,9.20
2023-06-11T10:45:21.126Z,7.30
2023-06-11T10:47:51.015Z,5.05
2023-06-11T10:50:26.408Z,8.50
2023-06-11T10:52:57.232Z,6.47
2023-06-11T10:55:27.396Z,6.85
2023-06-11T10:57:55.147Z,7.15
2023-06-11T11:00:23.231Z,8.93
2023-06-11T11:02:51.846Z,6.53
2023-06-11T11:07:47.077Z,6.55
2023-06-11T11:10:20.031Z,8.07
2023-06-11T11:12:48.261Z,8.52
2023-06-11T11:15:16.287Z,7.43
2023-06-11T11:17:44.640Z,11.32
2023-06-11T11:20:18.429Z,7.10
2023-06-11T11:22:53.610Z,10.88
2023-06-11T11:25:22.919Z,7.00
2023-06-11T11:27:50.538Z,7.90
2023-06-11T11:30:21.002Z,6.85
2023-06-11T11:32:48.429Z,6.32
2023-06-11T11:35:16.141Z,8.68
2023-06-11T11:37:45.828Z,6.80
2023-06-11T11:40:13.889Z,9.68
2023-06-11T11:42:48.232Z,8.75
2023-06-11T11:45:16.065Z,6.18
2023-06-11T11:47:53.318Z,5.30
2023-06-11T11:50:28.418Z,9.35
2023-06-11T11:53:06.845Z,8.23
2023-06-11T11:55:52.414Z,10.20
2023-06-11T11:58:28.291Z,8.45
2023-06-11T12:00:57.730Z,8.10
2023-06-11T12:03:26.192Z,9.10
2023-06-11T12:06:07.656Z,6.97
2023-06-11T12:08:36.647Z,6.43
2023-06-11T12:11:07.595Z,5.70
2023-06-11T12:13:35.561Z,11.45
2023-06-11T12:16:04.872Z,11.13
2023-06-11T12:18:33.559Z,6.82
2023-06-11T12:21:01.080Z,10.55
2023-06-11T12:23:28.405Z,7.97
2023-06-11T12:25:55.639Z,15.63
2023-06-11T12:28:22.947Z,6.68
2023-06-11T12:30:50.285Z,7.43
2023-06-11T12:33:17.801Z,11.52
2023-06-11T12:35:45.629Z,10.80
2023-06-11T12:38:14.115Z,8.80
2023-06-11T12:40:41.726Z,11.20
2023-06-11T12:43:09.109Z,12.32
2023-06-11T12:45:38.530Z,7.40
2023-06-11T12:48:06.564Z,9.25
2023-06-11T12:50:34.049Z,9.18
2023-06-11T12:53:02.569Z,8.18
2023-06-11T12:55:29.953Z,13.13
2023-06-11T12:57:57.198Z,9.70
2023-06-11T13:00:26.441Z,10.63
2023-06-11T13:02:53.745Z,14.68
2023-06-11T13:05:22.659Z,7.20
2023-06-11T13:07:50.504Z,8.60
2023-06-11T13:10:18.153Z,12.55
2023-06-11T13:12:45.468Z,7.65
2023-06-11T13:15:12.700Z,15.07
2023-06-11T13:17:40.266Z,11.98
2023-06-11T13:20:11.372Z,8.73
2023-06-11T13:22:39.483Z,9.18
2023-06-11T13:25:07.196Z,10.07
2023-06-11T13:27:34.420Z,9.27
2023-06-11T13:30:02.551Z,9.82
2023-06-11T13:32:29.878Z,12.07
2023-06-11T13:34:58.334Z,7.95
2023-06-11T13:37:25.637Z,8.95
2023-06-11T13:39:53.019Z,8.45
2023-06-11T13:42:20.482Z,8.20
2023-06-11T13:44:47.756Z,7.45
2023-06-11T13:47:15.063Z,12.43
2023-06-11T13:49:42.741Z,7.25
2023-06-11T13:52:09.967Z,9.27
2023-06-11T13:54:38.385Z,11.27
2023-06-11T13:57:05.799Z,7.65
2023-06-11T13:59:33.734Z,8.82
2023-06-11T14:05:12.563Z,10.00
2023-06-11T14:07:40.876Z,9.73
2023-06-11T14:10:09.055Z,7.95
2023-06-11T14:12:36.543Z,8.57
2023-06-11T14:15:04.096Z,9.88
2023-06-11T14:17:31.786Z,7.45
2023-06-11T14:19:59.129Z,6.53
2023-06-11T14:22:26.506Z,6.43
2023-06-11T14:24:53.829Z,8.32
2023-06-11T14:27:21.045Z,8.20
2023-06-11T14:29:48.328Z,9.48
2023-06-11T14:32:15.799Z,8.05
2023-06-11T14:34:43.050Z,6.95
2023-06-11T14:37:10.582Z,9.60
2023-06-11T14:39:37.802Z,6.10
2023-06-11T14:42:06.159Z,9.05
2023-06-11T14:44:33.499Z,8.82
2023-06-11T14:47:01.132Z,9.00
2023-06-11T14:49:28.354Z,9.05
2023-06-11T14:51:56.784Z,7.20
2023-06-11T14:54:25.929Z,10.38
2023-06-11T14:56:55.559Z,8.00
2023-06-11T14:59:22.854Z,8.95
2023-06-11T15:01:50.097Z,9.55
2023-06-11T15:04:17.441Z,8.35
2023-06-11T15:06:44.989Z,13.57
2023-06-11T15:09:12.273Z,6.45
2023-06-11T15:11:39.501Z,10.00
2023-06-11T15:14:06.853Z,12.68
2023-06-11T15:16:34.197Z,12.73
2023-06-11T15:19:01.519Z,11.63
2023-06-11T15:21:28.778Z,7.80
2023-06-11T15:23:56.710Z,11.30
2023-06-11T15:26:24.095Z,5.20
2023-06-11T15:28:51.345Z,8.68
2023-06-11T15:31:18.716Z,8.55
2023-06-11T15:33:46.077Z,8.02
2023-06-11T15:36:13.583Z,9.52
2023-06-11T15:38:40.921Z,5.95
2023-06-11T15:41:08.141Z,5.90
2023-06-11T15:43:35.795Z,7.03
2023-06-11T15:46:03.463Z,10.63
2023-06-11T15:48:30.803Z,19.60
2023-06-11T15:50:58.126Z,7.13
2023-06-11T15:53:25.550Z,8.68
2023-06-11T15:55:52.774Z,7.75
2023-06-11T15:58:20.154Z,8.95
2023-06-11T16:00:47.512Z,9.13
2023-06-11T16:03:16.395Z,12.45
2023-06-11T16:05:44.045Z,7.20
2023-06-11T16:08:11.790Z,9.45
2023-06-11T16:10:39.227Z,6.05
2023-06-11T16:13:06.548Z,7.38
2023-06-11T16:15:34.561Z,7.60
2023-06-11T16:18:01.983Z,10.10
2023-06-11T16:20:31.122Z,10.10
2023-06-11T16:22:58.430Z,8.80
2023-06-11T16:25:25.795Z,7.10
2023-06-11T16:27:53.293Z,8.98
2023-06-11T16:30:20.744Z,10.43
2023-06-11T16:32:48.032Z,12.95
2023-06-11T16:35:17.830Z,11.68
2023-06-11T16:37:45.728Z,6.45
2023-06-11T16:40:13.056Z,13.07
2023-06-11T16:42:40.337Z,6.53
2023-06-11T16:45:07.964Z,9.77
2023-06-11T16:47:35.308Z,13.55
2023-06-11T16:50:02.591Z,9.55
2023-06-11T16:52:30.907Z,12.07
2023-06-11T16:55:01.393Z,15.05
2023-06-11T16:57:29.175Z,10.02
2023-06-11T16:59:58.211Z,9.20
2023-06-11T17:02:25.503Z,8.25
2023-06-11T17:04:52.855Z,14.07
2023-06-11T17:07:20.269Z,6.68
2023-06-11T17:09:47.566Z,7.00
2023-06-11T17:12:15.306Z,7.65
2023-06-11T17:14:42.528Z,8.35
2023-06-11T17:17:09.802Z,16.83
2023-06-11T17:19:37.342Z,7.28
2023-06-11T17:22:04.690Z,8.52
2023-06-11T17:24:32.117Z,9.55
2023-06-11T17:26:59.532Z,11.25
2023-06-11T17:29:26.794Z,8.30
2023-06-11T17:31:54.115Z,7.15
2023-06-11T17:34:21.354Z,8.05
2023-06-11T17:36:49.304Z,7.97
2023-06-11T17:39:16.588Z,6.33
2023-06-11T17:41:43.869Z,9.70
2023-06-11T17:44:11.102Z,6.32
2023-06-11T17:46:38.335Z,9.48
2023-06-11T17:49:05.866Z,7.80
2023-06-11T17:51:33.110Z,6.70
2023-06-11T17:54:00.876Z,11.20
2023-06-11T17:56:28.504Z,6.78
2023-06-11T17:58:55.713Z,6.97
2023-06-11T18:01:23.722Z,10.05
2023-06-11T18:03:51.264Z,8.93
2023-06-11T18:06:18.962Z,7.50
2023-06-11T18:08:46.363Z,11.60
2023-06-11T18:11:13.642Z,9.45
2023-06-11T18:13:40.912Z,6.60
2023-06-11T18:16:08.432Z,6.85
2023-06-11T18:18:35.832Z,10.45
2023-06-11T18:21:03.131Z,10.75
2023-06-11T18:23:30.390Z,7.40
2023-06-11T18:25:58.102Z,8.15
2023-06-11T18:28:26.494Z,10.88
2023-06-11T18:30:54.419Z,5.90
2023-06-11T18:33:21.757Z,7.45
2023-06-11T18:35:49.137Z,8.60
2023-06-11T18:38:16.359Z,8.73
2023-06-11T18:40:43.664Z,7.75
2023-06-11T18:43:11.018Z,8.85
2023-06-11T18:45:38.294Z,7.90
2023-06-11T18:48:05.833Z,7.65
2023-06-11T18:50:33.192Z,7.60
2023-06-11T18:53:00.570Z,7.85
2023-06-11T18:55:30.513Z,8.32
2023-06-11T18:58:06.265Z,10.25
2023-06-11T19:00:35.170Z,8.52
2023-06-11T19:03:03.077Z,7.45
2023-06-11T19:05:30.776Z,13.30
2023-06-11T19:07:58.038Z,10.15
2023-06-11T19:10:25.410Z,7.68
2023-06-11T19:12:54.897Z,10.23
2023-06-11T19:15:23.452Z,8.40
2023-06-11T19:17:50.953Z,6.10
2023-06-11T19:20:18.575Z,11.68
2023-06-11T19:22:46.041Z,11.43
2023-06-11T19:25:13.394Z,9.05
2023-06-11T19:27:40.633Z,8.43
2023-06-11T19:30:08.313Z,7.63
2023-06-11T19:32:36.024Z,13.93
2023-06-11T19:35:03.321Z,10.13
2023-06-11T19:37:30.808Z,8.77
2023-06-11T19:39:58.074Z,7.13
2023-06-11T19:42:25.289Z,5.47
2023-06-11T19:44:52.834Z,10.57
2023-06-11T19:47:20.461Z,6.47
2023-06-11T19:49:48.531Z,6.15
2023-06-11T19:52:15.876Z,12.37
2023-06-11T19:54:51.070Z,6.88
2023-06-11T19:57:20.034Z,9.23
2023-06-11T19:59:48.048Z,12.48
2023-06-11T20:02:15.748Z,11.07
2023-06-11T20:04:43.161Z,14.63
2023-06-11T20:07:10.414Z,10.45
2023-06-11T20:09:37.694Z,14.38
2023-06-11T20:12:08.205Z,14.27
2023-06-11T20:14:36.630Z,12.88
2023-06-11T20:17:04.875Z,12.10
2023-06-11T20:19:35.088Z,9.68
2023-06-11T20:22:03.514Z,8.02
2023-06-11T20:24:30.775Z,7.20
2023-06-11T20:26:58.042Z,11.90
2023-06-11T20:29:25.422Z,17.80
2023-06-11T20:31:53.271Z,10.02
2023-06-11T20:34:20.799Z,10.75
2023-06-11T20:36:48.773Z,11.73
2023-06-11T20:39:16.118Z,7.07
2023-06-11T20:41:43.443Z,7.03
2023-06-11T20:44:10.829Z,9.45
2023-06-11T20:46:38.287Z,8.55
2023-06-11T20:49:08.893Z,13.13
2023-06-11T20:51:38.597Z,6.68
2023-06-11T20:54:06.584Z,5.97
2023-06-11T20:56:34.126Z,5.07
2023-06-11T20:59:04.482Z,9.55
2023-06-11T21:01:31.922Z,9.50
2023-06-11T21:03:59.301Z,11.18
2023-06-11T21:06:26.645Z,7.13
2023-06-11T21:08:53.939Z,8.48
2023-06-11T21:11:21.246Z,8.05
2023-06-11T21:14:03.850Z,5.78
2023-06-11T21:16:37.102Z,15.40
2023-06-11T21:19:04.544Z,8.75
2023-06-11T21:21:31.963Z,6.32
2023-06-11T21:24:00.027Z,8.00
2023-06-11T21:26:27.554Z,11.80
2023-06-11T21:28:54.855Z,11.95
2023-06-11T21:31:22.158Z,9.40
2023-06-11T21:33:49.465Z,7.43
2023-06-11T21:36:16.776Z,11.05
2023-06-11T21:38:44.237Z,14.48
2023-06-11T21:41:11.699Z,7.85
2023-06-11T21:43:38.952Z,10.25
2023-06-11T21:46:06.197Z,6.82
2023-06-11T21:48:33.714Z,9.32
2023-06-11T21:51:00.938Z,5.38
2023-06-11T21:53:28.186Z,7.10
2023-06-11T21:55:55.449Z,7.25
2023-06-11T21:58:22.681Z,7.28
2023-06-11T22:00:49.991Z,8.02
2023-06-11T22:03:19.861Z,6.10
2023-06-11T22:05:47.251Z,7.40
2023-06-11T22:08:14.780Z,7.78
2023-06-11T22:10:42.070Z,7.63
2023-06-11T22:13:09.279Z,8.43
2023-06-11T22:15:36.533Z,10.80
2023-06-11T22:18:03.819Z,8.85
2023-06-11T22:20:35.766Z,7.05
2023-06-11T22:23:03.709Z,9.70
2023-06-11T22:25:30.954Z,6.90
2023-06-11T22:27:58.178Z,7.45
2023-06-11T22:30:25.535Z,9.60
2023-06-11T22:32:52.800Z,8.77
2023-06-11T22:35:20.114Z,7.20
2023-06-11T22:37:47.336Z,8.85
2023-06-11T22:40:15.157Z,4.90
2023-06-11T22:42:42.620Z,5.53
2023-06-11T22:45:10.124Z,7.95
2023-06-11T22:47:37.810Z,9.68
2023-06-11T22:50:05.752Z,4.93
2023-06-11T22:52:39.543Z,11.32
2023-06-11T22:55:10.914Z,14.52
2023-06-11T22:57:38.181Z,6.70
2023-06-11T23:00:07.453Z,8.30
2023-06-11T23:02:34.710Z,8.63
2023-06-11T23:05:04.643Z,6.95
2023-06-11T23:07:32.303Z,4.53
2023-06-11T23:09:59.520Z,5.30
2023-06-11T23:12:26.728Z,6.13
2023-06-11T23:14:53.971Z,4.93
2023-06-11T23:17:21.266Z,6.95
2023-06-11T23:19:48.550Z,7.78
2023-06-11T23:22:18.556Z,7.72
2023-06-11T23:24:46.220Z,6.20
2023-06-11T23:27:16.310Z,7.38
2023-06-11T23:29:44.656Z,8.65
2023-06-11T23:32:12.124Z,9.57
2023-06-11T23:34:39.632Z,5.82
2023-06-11T23:37:07.461Z,6.82
2023-06-11T23:39:35.345Z,4.90
2023-06-11T23:42:02.928Z,6.65
2023-06-11T23:44:30.491Z,5.93
2023-06-11T23:46:57.806Z,7.40
2023-06-11T23:49:25.052Z,11.35
2023-06-11T23:51:52.373Z,6.22
2023-06-11T23:54:19.601Z,5.55
2023-06-11T23:56:46.875Z,5.97
2023-06-11T23:59:14.198Z,5.63
